createdAt,value
2022-09-23T00:00:58.304Z,8.29
2022-09-23T00:01:58.284Z,8.28
2022-09-23T00:02:58.306Z,8.28
2022-09-23T00:03:58.179Z,8.31
2022-09-23T00:04:58.185Z,8.29
2022-09-23T00:05:58.194Z,8.34
2022-09-23T00:06:58.188Z,8.35
2022-09-23T00:07:58.210Z,8.38
2022-09-23T00:08:58.145Z,8.39
2022-09-23T00:09:58.135Z,8.42
2022-09-23T00:10:58.159Z,8.46
2022-09-23T00:11:58.107Z,8.52
2022-09-23T00:12:58.116Z,8.53
2022-09-23T00:13:58.076Z,8.55
2022-09-23T00:14:58.048Z,8.56
2022-09-23T00:15:58.025Z,8.57
2022-09-23T00:16:58.079Z,8.63
2022-09-23T00:17:58.036Z,8.63
2022-09-23T00:18:58.053Z,8.65
2022-09-23T00:19:57.974Z,8.68
2022-09-23T00:20:58.028Z,8.70
2022-09-23T00:21:57.990Z,8.68
2022-09-23T00:22:57.960Z,8.65
2022-09-23T00:23:57.946Z,8.65
2022-09-23T00:24:57.977Z,8.67
2022-09-23T00:25:57.942Z,8.68
2022-09-23T00:26:57.916Z,8.67
2022-09-23T00:27:57.884Z,8.63
2022-09-23T00:28:57.903Z,8.65
2022-09-23T00:29:57.862Z,8.65
2022-09-23T00:30:57.923Z,8.65
2022-09-23T00:31:57.905Z,8.67
2022-09-23T00:32:57.853Z,8.65
2022-09-23T00:33:57.802Z,8.59
2022-09-23T00:34:57.782Z,8.59
2022-09-23T00:35:57.861Z,8.57
2022-09-23T00:36:57.830Z,8.55
2022-09-23T00:37:57.751Z,8.53
2022-09-23T00:38:57.730Z,8.50
2022-09-23T00:39:57.734Z,8.47
2022-09-23T00:40:57.736Z,8.44
2022-09-23T00:41:57.709Z,8.44
2022-09-23T00:42:57.727Z,8.44
2022-09-23T00:43:57.666Z,8.47
2022-09-23T00:44:57.806Z,8.49
2022-09-23T00:45:57.691Z,8.49
2022-09-23T00:46:57.654Z,8.49
2022-09-23T00:47:57.614Z,8.47
2022-09-23T00:48:57.680Z,8.49
2022-09-23T00:49:57.579Z,8.49
2022-09-23T00:50:57.582Z,8.52
2022-09-23T00:51:57.605Z,8.52
2022-09-23T00:52:57.567Z,8.50
2022-09-23T00:53:57.528Z,8.53
2022-09-23T00:54:57.587Z,8.49
2022-09-23T00:55:57.529Z,8.52
2022-09-23T00:56:57.525Z,8.50
2022-09-23T00:57:57.546Z,8.50
2022-09-23T00:58:57.506Z,8.50
2022-09-23T00:59:57.448Z,8.53
2022-09-23T01:00:57.552Z,8.53
2022-09-23T01:01:57.488Z,8.50
2022-09-23T01:02:57.427Z,8.49
2022-09-23T01:03:57.416Z,8.47
2022-09-23T01:04:57.388Z,8.42
2022-09-23T01:05:57.384Z,8.42
2022-09-23T01:06:57.413Z,8.41
2022-09-23T01:07:57.353Z,8.34
2022-09-23T01:08:57.349Z,8.29
2022-09-23T01:09:57.367Z,8.29
2022-09-23T01:10:57.316Z,8.28
2022-09-23T01:11:57.303Z,8.26
2022-09-23T01:12:57.328Z,8.21
2022-09-23T01:13:57.352Z,8.20
2022-09-23T01:14:57.272Z,8.20
2022-09-23T01:15:57.232Z,8.21
2022-09-23T01:16:57.373Z,8.23
2022-09-23T01:17:57.213Z,8.26
2022-09-23T01:18:57.272Z,8.26
2022-09-23T01:19:57.237Z,8.29
2022-09-23T01:20:57.203Z,8.29
2022-09-23T01:21:57.184Z,8.31
2022-09-23T01:22:57.170Z,8.31
2022-09-23T01:23:57.145Z,8.34
2022-09-23T01:24:57.222Z,8.34
2022-09-23T01:25:57.151Z,8.34
2022-09-23T01:26:57.134Z,8.32
2022-09-23T01:27:57.092Z,8.32
2022-09-23T01:28:57.094Z,8.31
2022-09-23T01:29:57.099Z,8.29
2022-09-23T01:30:57.194Z,8.29
2022-09-23T01:31:57.046Z,8.31
2022-09-23T01:32:57.047Z,8.28
2022-09-23T01:33:57.034Z,8.28
2022-09-23T01:34:57.005Z,8.26
2022-09-23T01:35:56.995Z,8.26
2022-09-23T01:36:57.018Z,8.28
2022-09-23T01:37:56.950Z,8.24
2022-09-23T01:38:56.973Z,8.26
2022-09-23T01:39:56.922Z,8.23
2022-09-23T01:40:56.925Z,8.23
2022-09-23T01:41:56.965Z,8.21
2022-09-23T01:42:56.968Z,8.19
2022-09-23T01:43:56.863Z,8.16
2022-09-23T01:44:56.909Z,8.16
2022-09-23T01:45:56.874Z,8.16
2022-09-23T01:46:56.889Z,8.17
2022-09-23T01:47:56.859Z,8.19
2022-09-23T01:48:56.947Z,8.13
2022-09-23T01:49:56.784Z,8.13
2022-09-23T01:50:56.848Z,8.13
2022-09-23T01:51:56.782Z,8.13
2022-09-23T01:52:56.788Z,8.14
2022-09-23T01:53:56.761Z,8.13
2022-09-23T01:54:56.838Z,8.12
2022-09-23T01:55:56.713Z,8.10
2022-09-23T01:56:56.725Z,8.10
2022-09-23T01:57:56.721Z,8.09
2022-09-23T01:58:56.720Z,8.05
2022-09-23T01:59:56.664Z,8.04
2022-09-23T02:00:56.760Z,8.05
2022-09-23T02:01:56.789Z,7.99
2022-09-23T02:02:56.646Z,7.99
2022-09-23T02:03:56.635Z,7.95
2022-09-23T02:04:56.641Z,7.95
2022-09-23T02:05:56.598Z,7.98
2022-09-23T02:06:56.626Z,8.01
2022-09-23T02:07:56.624Z,8.01
2022-09-23T02:08:56.591Z,8.01
2022-09-23T02:10:03.461Z,8.01
2022-09-23T02:10:56.521Z,7.98
2022-09-23T02:11:58.745Z,7.96
2022-09-23T02:12:56.569Z,7.95
2022-09-23T02:13:56.534Z,7.91
2022-09-23T02:14:56.495Z,7.91
2022-09-23T02:15:56.470Z,7.83
2022-09-23T02:16:56.545Z,7.83
2022-09-23T02:17:56.463Z,7.83
2022-09-23T02:18:56.449Z,7.78
2022-09-23T02:19:56.459Z,7.74
2022-09-23T02:20:56.399Z,7.69
2022-09-23T02:21:56.381Z,7.66
2022-09-23T02:22:56.400Z,7.66
2022-09-23T02:23:56.361Z,7.62
2022-09-23T02:24:56.411Z,7.62
2022-09-23T02:25:56.367Z,7.61
2022-09-23T02:26:56.340Z,7.60
2022-09-23T02:27:56.323Z,7.62
2022-09-23T02:28:56.297Z,7.62
2022-09-23T02:29:56.283Z,7.62
2022-09-23T02:30:56.305Z,7.62
2022-09-23T02:31:56.303Z,7.60
2022-09-23T02:32:56.228Z,7.58
2022-09-23T02:33:56.264Z,7.58
2022-09-23T02:34:56.210Z,7.58
2022-09-23T02:35:56.236Z,7.64
2022-09-23T02:36:56.262Z,7.71
2022-09-23T02:37:56.189Z,7.71
2022-09-23T02:38:56.172Z,7.71
2022-09-23T02:39:56.150Z,7.69
2022-09-23T02:40:56.122Z,7.64
2022-09-23T02:41:56.165Z,7.61
2022-09-23T02:42:56.130Z,7.58
2022-09-23T02:43:56.101Z,7.55
2022-09-23T02:44:56.093Z,7.54
2022-09-23T02:45:56.140Z,7.52
2022-09-23T02:46:56.046Z,7.49
2022-09-23T02:47:56.070Z,7.52
2022-09-23T02:48:56.070Z,7.54
2022-09-23T02:49:56.029Z,7.54
2022-09-23T02:50:56.000Z,7.52
2022-09-23T02:51:55.990Z,7.50
2022-09-23T02:52:55.983Z,7.47
2022-09-23T02:53:56.014Z,7.40
2022-09-23T02:54:55.981Z,7.31
2022-09-23T02:55:55.970Z,7.26
2022-09-23T02:56:55.941Z,7.22
2022-09-23T02:57:55.910Z,7.11
2022-09-23T02:58:55.888Z,7.07
2022-09-23T02:59:55.909Z,6.99
2022-09-23T03:00:55.965Z,6.91
2022-09-23T03:01:55.923Z,6.81
2022-09-23T03:02:55.842Z,6.74
2022-09-23T03:03:55.887Z,6.71
2022-09-23T03:04:55.810Z,6.70
2022-09-23T03:05:55.809Z,6.67
2022-09-23T03:06:55.848Z,6.61
2022-09-23T03:07:55.775Z,6.64
2022-09-23T03:08:55.751Z,6.64
2022-09-23T03:09:55.762Z,6.67
2022-09-23T03:10:55.731Z,6.67
2022-09-23T03:11:55.736Z,6.64
2022-09-23T03:12:55.786Z,6.60
2022-09-23T03:13:55.705Z,6.55
2022-09-23T03:14:55.683Z,6.50
2022-09-23T03:15:55.739Z,6.52
2022-09-23T03:16:55.643Z,6.53
2022-09-23T03:17:55.656Z,6.60
2022-09-23T03:18:55.702Z,6.64
2022-09-23T03:19:55.626Z,6.67
2022-09-23T03:20:55.631Z,6.67
2022-09-23T03:21:55.629Z,6.73
2022-09-23T03:22:55.583Z,6.75
2022-09-23T03:23:55.575Z,6.75
2022-09-23T03:24:55.606Z,6.75
2022-09-23T03:25:55.554Z,6.74
2022-09-23T03:26:55.527Z,6.79
2022-09-23T03:27:55.546Z,6.85
2022-09-23T03:28:55.540Z,6.86
2022-09-23T03:29:55.496Z,6.89
2022-09-23T03:30:55.515Z,6.99
2022-09-23T03:31:55.558Z,6.99
2022-09-23T03:32:55.448Z,7.01
2022-09-23T03:33:55.461Z,7.01
2022-09-23T03:34:55.416Z,7.01
2022-09-23T03:35:55.420Z,7.01
2022-09-23T03:36:55.445Z,7.03
2022-09-23T03:37:55.388Z,7.07
2022-09-23T03:38:55.356Z,7.04
2022-09-23T03:39:55.404Z,7.04
2022-09-23T03:40:55.459Z,7.07
2022-09-23T03:41:55.341Z,7.03
2022-09-23T03:42:55.375Z,7.10
2022-09-23T03:43:55.325Z,7.08
2022-09-23T03:44:55.287Z,7.08
2022-09-23T03:45:55.346Z,7.06
2022-09-23T03:46:55.276Z,7.01
2022-09-23T03:47:55.253Z,7.00
2022-09-23T03:48:55.273Z,6.99
2022-09-23T03:49:55.250Z,6.99
2022-09-23T03:50:55.208Z,6.97
2022-09-23T03:51:55.204Z,6.93
2022-09-23T03:52:55.197Z,6.92
2022-09-23T03:53:55.182Z,6.92
2022-09-23T03:54:55.205Z,6.89
2022-09-23T03:55:55.245Z,6.86
2022-09-23T03:56:55.131Z,6.81
2022-09-23T03:57:55.128Z,6.74
2022-09-23T03:58:55.115Z,6.65
2022-09-23T03:59:55.113Z,6.50
2022-09-23T04:00:55.173Z,6.43
2022-09-23T04:01:55.086Z,6.34
2022-09-23T04:02:55.087Z,6.19
2022-09-23T04:03:55.050Z,6.11
2022-09-23T04:04:55.027Z,6.05
2022-09-23T04:05:55.029Z,6.00
2022-09-23T04:06:55.039Z,5.88
2022-09-23T04:07:54.993Z,5.79
2022-09-23T04:08:55.004Z,5.72
2022-09-23T04:09:54.994Z,5.69
2022-09-23T04:10:55.094Z,5.65
2022-09-23T04:11:54.977Z,5.57
2022-09-23T04:12:54.954Z,5.50
2022-09-23T04:13:54.930Z,5.34
2022-09-23T04:14:54.930Z,5.37
2022-09-23T04:15:54.940Z,5.34
2022-09-23T04:16:54.864Z,5.32
2022-09-23T04:17:54.889Z,5.30
2022-09-23T04:18:54.881Z,5.24
2022-09-23T04:19:54.837Z,5.27
2022-09-23T04:20:54.852Z,5.25
2022-09-23T04:21:54.809Z,5.22
2022-09-23T04:22:54.788Z,5.24
2022-09-23T04:23:54.784Z,5.24
2022-09-23T04:24:54.812Z,5.22
2022-09-23T04:25:54.806Z,5.16
2022-09-23T04:26:54.755Z,5.14
2022-09-23T04:27:54.779Z,5.14
2022-09-23T04:28:54.734Z,5.12
2022-09-23T04:29:54.718Z,5.09
2022-09-23T04:30:54.765Z,5.07
2022-09-23T04:31:54.781Z,5.07
2022-09-23T04:32:54.653Z,5.09
2022-09-23T04:33:54.717Z,5.11
2022-09-23T04:34:54.637Z,5.14
2022-09-23T04:35:54.627Z,5.07
2022-09-23T04:36:54.679Z,5.04
2022-09-23T04:37:54.645Z,5.06
2022-09-23T04:38:54.606Z,5.06
2022-09-23T04:39:54.631Z,5.11
2022-09-23T04:40:54.551Z,5.18
2022-09-23T04:41:54.551Z,5.21
2022-09-23T04:42:54.585Z,5.21
2022-09-23T04:43:54.569Z,5.22
2022-09-23T04:44:54.503Z,5.19
2022-09-23T04:45:54.513Z,5.21
2022-09-23T04:46:54.558Z,5.24
2022-09-23T04:47:54.436Z,5.21
2022-09-23T04:48:54.442Z,5.22
2022-09-23T04:49:58.988Z,5.18
2022-09-23T04:50:54.420Z,5.22
2022-09-23T04:51:54.394Z,5.16
2022-09-23T04:52:54.385Z,5.12
2022-09-23T04:53:54.379Z,5.11
2022-09-23T04:54:54.352Z,5.07
2022-09-23T04:55:54.317Z,5.04
2022-09-23T04:56:54.291Z,5.01
2022-09-23T04:57:54.316Z,5.06
2022-09-23T04:58:54.278Z,5.04
2022-09-23T04:59:54.321Z,5.01
2022-09-23T05:00:54.430Z,5.00
2022-09-23T05:01:54.323Z,4.98
2022-09-23T05:02:54.268Z,4.94
2022-09-23T05:03:54.231Z,4.98
2022-09-23T05:04:54.213Z,4.97
2022-09-23T05:05:54.219Z,4.94
2022-09-23T05:06:54.233Z,4.97
2022-09-23T05:07:54.165Z,4.93
2022-09-23T05:08:54.164Z,4.94
2022-09-23T05:09:54.280Z,4.96
2022-09-23T05:10:54.154Z,4.97
2022-09-23T05:11:54.110Z,4.98
2022-09-23T05:12:57.267Z,4.98
2022-09-23T05:13:54.099Z,5.00
2022-09-23T05:14:54.122Z,5.01
2022-09-23T05:15:54.254Z,5.01
2022-09-23T05:16:54.112Z,5.11
2022-09-23T05:17:54.048Z,5.15
2022-09-23T05:18:54.063Z,5.19
2022-09-23T05:19:54.027Z,5.25
2022-09-23T05:20:53.998Z,5.32
2022-09-23T05:21:54.006Z,5.32
2022-09-23T05:22:53.974Z,5.36
2022-09-23T05:23:53.959Z,5.39
2022-09-23T05:24:54.024Z,5.39
2022-09-23T05:25:53.926Z,5.36
2022-09-23T05:26:53.895Z,5.37
2022-09-23T05:27:53.938Z,5.39
2022-09-23T05:28:53.950Z,5.43
2022-09-23T05:29:53.868Z,5.47
2022-09-23T05:30:53.894Z,5.51
2022-09-23T05:31:53.894Z,5.52
2022-09-23T05:32:53.818Z,5.57
2022-09-23T05:33:53.840Z,5.58
2022-09-23T05:34:53.799Z,5.62
2022-09-23T05:35:53.793Z,5.69
2022-09-23T05:36:53.833Z,5.73
2022-09-23T05:37:53.794Z,5.80
2022-09-23T05:38:53.738Z,5.82
2022-09-23T05:39:53.787Z,5.85
2022-09-23T05:40:53.718Z,5.90
2022-09-23T05:41:53.731Z,5.93
2022-09-23T05:42:53.735Z,5.98
2022-09-23T05:43:53.719Z,6.00
2022-09-23T05:44:53.665Z,5.94
2022-09-23T05:45:53.715Z,5.94
2022-09-23T05:46:53.736Z,5.93
2022-09-23T05:47:53.652Z,5.93
2022-09-23T05:48:53.669Z,5.91
2022-09-23T05:50:00.071Z,5.93
2022-09-23T05:50:53.623Z,5.93
2022-09-23T05:51:53.581Z,5.94
2022-09-23T05:52:53.564Z,5.98
2022-09-23T05:53:53.556Z,6.00
2022-09-23T05:54:53.621Z,6.06
2022-09-23T05:55:53.704Z,6.06
2022-09-23T05:56:53.512Z,6.13
2022-09-23T05:57:53.572Z,6.19
2022-09-23T05:58:53.479Z,6.25
2022-09-23T05:59:53.485Z,6.32
2022-09-23T06:00:53.638Z,6.37
2022-09-23T06:01:56.429Z,6.43
2022-09-23T06:02:53.458Z,6.50
2022-09-23T06:03:53.447Z,6.52
2022-09-23T06:04:53.411Z,6.56
2022-09-23T06:05:53.391Z,6.60
2022-09-23T06:06:53.630Z,6.61
2022-09-23T06:07:53.536Z,6.60
2022-09-23T06:08:53.362Z,6.63
2022-09-23T06:09:53.370Z,6.60
2022-09-23T06:10:54.562Z,6.64
2022-09-23T06:11:53.320Z,6.64
2022-09-23T06:12:53.354Z,6.67
2022-09-23T06:13:53.352Z,6.70
2022-09-23T06:14:53.261Z,6.73
2022-09-23T06:15:53.372Z,6.78
2022-09-23T06:16:53.261Z,6.79
2022-09-23T06:17:53.236Z,6.78
2022-09-23T06:18:53.306Z,6.81
2022-09-23T06:19:53.223Z,6.83
2022-09-23T06:20:53.224Z,6.89
2022-09-23T06:21:53.196Z,6.91
2022-09-23T06:22:55.452Z,6.96
2022-09-23T06:23:56.165Z,6.99
2022-09-23T06:24:53.194Z,7.03
2022-09-23T06:25:53.159Z,7.04
2022-09-23T06:26:53.126Z,7.10
2022-09-23T06:27:53.160Z,7.15
2022-09-23T06:28:53.127Z,7.19
2022-09-23T06:29:53.134Z,7.22
2022-09-23T06:30:53.148Z,7.25
2022-09-23T06:31:53.092Z,7.28
2022-09-23T06:32:53.066Z,7.33
2022-09-23T06:34:03.397Z,7.37
2022-09-23T06:34:53.059Z,7.36
2022-09-23T06:35:59.010Z,7.36
2022-09-23T06:36:53.076Z,7.37
2022-09-23T06:37:52.964Z,7.40
2022-09-23T06:38:52.972Z,7.42
2022-09-23T06:39:52.943Z,7.43
2022-09-23T06:40:52.975Z,7.47
2022-09-23T06:41:52.912Z,7.49
2022-09-23T06:42:52.977Z,7.50
2022-09-23T06:43:52.889Z,7.49
2022-09-23T06:44:52.886Z,7.54
2022-09-23T06:45:52.939Z,7.57
2022-09-23T06:46:52.932Z,7.62
2022-09-23T06:47:52.841Z,7.64
2022-09-23T06:48:53.020Z,7.71
2022-09-23T06:49:52.805Z,7.69
2022-09-23T06:50:52.849Z,7.66
2022-09-23T06:51:52.789Z,7.71
2022-09-23T06:52:52.802Z,7.76
2022-09-23T06:53:52.768Z,7.77
2022-09-23T06:54:52.850Z,7.78
2022-09-23T06:55:52.748Z,7.78
2022-09-23T06:56:52.757Z,7.84
2022-09-23T06:57:52.739Z,7.92
2022-09-23T06:58:52.733Z,7.98
2022-09-23T06:59:52.687Z,8.02
2022-09-23T07:00:52.774Z,8.06
2022-09-23T07:01:52.746Z,8.12
2022-09-23T07:02:52.681Z,8.13
2022-09-23T07:03:52.646Z,8.14
2022-09-23T07:04:52.656Z,8.17
2022-09-23T07:05:52.602Z,8.16
2022-09-23T07:06:52.671Z,8.13
2022-09-23T07:07:52.581Z,8.12
2022-09-23T07:08:52.572Z,8.10
2022-09-23T07:09:52.636Z,8.05
2022-09-23T07:10:52.563Z,8.02
2022-09-23T07:11:52.520Z,8.02
2022-09-23T07:12:52.589Z,8.01
2022-09-23T07:13:52.503Z,7.99
2022-09-23T07:14:52.500Z,7.99
2022-09-23T07:15:52.555Z,7.99
2022-09-23T07:16:52.471Z,7.98
2022-09-23T07:17:52.445Z,7.95
2022-09-23T07:18:52.508Z,7.95
2022-09-23T07:19:52.427Z,7.98
2022-09-23T07:20:52.443Z,7.99
2022-09-23T07:21:52.408Z,8.01
2022-09-23T07:22:52.392Z,8.05
2022-09-23T07:23:52.372Z,8.06
2022-09-23T07:24:52.418Z,8.10
2022-09-23T07:25:52.338Z,8.12
2022-09-23T07:26:52.339Z,8.14
2022-09-23T07:27:52.325Z,8.23
2022-09-23T07:28:52.308Z,8.31
2022-09-23T07:29:52.279Z,8.39
2022-09-23T07:30:59.861Z,8.47
2022-09-23T07:31:53.521Z,8.55
2022-09-23T07:32:52.322Z,8.65
2022-09-23T07:33:52.246Z,8.78
2022-09-23T07:34:52.248Z,8.85
2022-09-23T07:35:52.221Z,8.92
2022-09-23T07:36:52.274Z,8.98
2022-09-23T07:37:52.179Z,9.04
2022-09-23T07:38:52.198Z,9.11
2022-09-23T07:39:52.207Z,9.18
2022-09-23T07:40:52.232Z,9.26
2022-09-23T07:41:52.123Z,9.30
2022-09-23T07:42:52.170Z,9.34
2022-09-23T07:43:52.117Z,9.36
2022-09-23T07:44:52.139Z,9.44
2022-09-23T07:45:52.083Z,9.48
2022-09-23T07:46:52.160Z,9.54
2022-09-23T07:47:52.076Z,9.59
2022-09-23T07:48:52.076Z,9.65
2022-09-23T07:49:52.024Z,9.72
2022-09-23T07:50:52.026Z,9.81
2022-09-23T07:51:52.019Z,9.84
2022-09-23T07:52:51.995Z,9.90
2022-09-23T07:53:52.014Z,9.96
2022-09-23T07:54:52.000Z,10.02
2022-09-23T07:55:51.958Z,10.05
2022-09-23T07:56:52.015Z,10.12
2022-09-23T07:57:51.921Z,10.18
2022-09-23T07:58:51.941Z,10.28
2022-09-23T07:59:51.901Z,10.36
2022-09-23T08:00:51.936Z,10.45
2022-09-23T08:01:51.910Z,10.54
2022-09-23T08:02:53.099Z,10.61
2022-09-23T08:03:51.889Z,10.68
2022-09-23T08:04:51.837Z,10.79
2022-09-23T08:05:51.817Z,10.86
2022-09-23T08:06:51.836Z,10.94
2022-09-23T08:07:51.778Z,11.01
2022-09-23T08:08:53.502Z,11.04
2022-09-23T08:09:51.751Z,11.11
2022-09-23T08:10:51.794Z,11.13
2022-09-23T08:11:51.744Z,11.19
2022-09-23T08:12:51.728Z,11.27
2022-09-23T08:13:51.737Z,11.33
2022-09-23T08:14:51.711Z,11.41
2022-09-23T08:15:55.365Z,11.46
2022-09-23T08:16:51.701Z,11.55
2022-09-23T08:17:51.678Z,11.55
2022-09-23T08:18:51.705Z,11.61
2022-09-23T08:19:51.625Z,11.71
2022-09-23T08:20:51.659Z,11.82
2022-09-23T08:21:51.632Z,11.89
2022-09-23T08:22:51.589Z,11.95
2022-09-23T08:23:51.571Z,11.96
2022-09-23T08:24:52.669Z,11.97
2022-09-23T08:25:51.565Z,12.07
2022-09-23T08:26:51.543Z,12.15
2022-09-23T08:27:51.558Z,12.21
2022-09-23T08:28:51.515Z,12.29
2022-09-23T08:29:51.493Z,12.33
2022-09-23T08:30:51.562Z,12.40
2022-09-23T08:31:51.567Z,12.44
2022-09-23T08:32:51.531Z,12.53
2022-09-23T08:33:51.446Z,12.59
2022-09-23T08:34:51.434Z,12.58
2022-09-23T08:35:51.404Z,12.62
2022-09-23T08:36:51.425Z,12.61
2022-09-23T08:37:51.375Z,12.71
2022-09-23T08:38:51.403Z,12.76
2022-09-23T08:39:51.408Z,12.79
2022-09-23T08:40:51.355Z,12.79
2022-09-23T08:41:54.864Z,12.90
2022-09-23T08:42:51.343Z,12.96
2022-09-23T08:43:51.343Z,13.04
2022-09-23T08:44:51.300Z,13.16
2022-09-23T08:45:51.405Z,13.17
2022-09-23T08:46:51.276Z,13.16
2022-09-23T08:47:51.249Z,13.17
2022-09-23T08:48:51.256Z,13.19
2022-09-23T08:49:51.246Z,13.21
2022-09-23T08:50:51.218Z,13.24
2022-09-23T08:51:51.219Z,13.30
2022-09-23T08:52:51.200Z,13.40
2022-09-23T08:53:51.186Z,13.47
2022-09-23T08:54:55.239Z,13.53
2022-09-23T08:55:51.143Z,13.47
2022-09-23T08:56:51.162Z,13.51
2022-09-23T08:58:14.127Z,13.61
2022-09-23T08:58:51.158Z,13.72
2022-09-23T08:59:51.087Z,13.78
2022-09-23T09:00:51.145Z,13.72
2022-09-23T09:01:51.188Z,13.72
2022-09-23T09:02:51.166Z,13.80
2022-09-23T09:03:51.067Z,13.91
2022-09-23T09:04:51.062Z,13.97
2022-09-23T09:05:54.417Z,14.08
2022-09-23T09:06:54.040Z,14.18
2022-09-23T09:07:51.012Z,14.08
2022-09-23T09:08:51.000Z,14.01
2022-09-23T09:09:50.973Z,14.11
2022-09-23T09:10:50.966Z,14.22
2022-09-23T09:11:51.112Z,14.18
2022-09-23T09:12:50.947Z,14.21
2022-09-23T09:13:50.957Z,14.26
2022-09-23T09:14:50.942Z,14.26
2022-09-23T09:15:50.905Z,14.27
2022-09-23T09:17:06.223Z,14.41
2022-09-23T09:17:50.858Z,14.55
2022-09-23T09:18:50.875Z,14.64
2022-09-23T09:19:50.866Z,14.82
2022-09-23T09:20:50.843Z,14.82
2022-09-23T09:21:50.792Z,14.69
2022-09-23T09:22:50.826Z,14.66
2022-09-23T09:23:50.787Z,14.67
2022-09-23T09:24:50.779Z,14.63
2022-09-23T09:25:50.742Z,14.74
2022-09-23T09:26:50.771Z,14.89
2022-09-23T09:27:50.792Z,14.95
2022-09-23T09:28:50.724Z,14.87
2022-09-23T09:29:50.708Z,14.86
2022-09-23T09:30:50.733Z,14.97
2022-09-23T09:31:50.716Z,15.11
2022-09-23T09:32:50.669Z,15.19
2022-09-23T09:33:50.715Z,15.19
2022-09-23T09:34:50.665Z,15.17
2022-09-23T09:35:50.610Z,15.27
2022-09-23T09:36:50.649Z,15.41
2022-09-23T09:37:53.257Z,15.43
2022-09-23T09:38:50.658Z,15.54
2022-09-23T09:39:50.581Z,15.68
2022-09-23T09:40:50.623Z,15.63
2022-09-23T09:41:50.604Z,15.65
2022-09-23T09:42:50.527Z,15.65
2022-09-23T09:43:50.521Z,15.63
2022-09-23T09:44:50.524Z,15.54
2022-09-23T09:45:53.895Z,15.68
2022-09-23T09:46:50.601Z,15.70
2022-09-23T09:47:50.455Z,15.76
2022-09-23T09:48:50.495Z,15.80
2022-09-23T09:49:50.503Z,15.76
2022-09-23T09:50:50.431Z,15.81
2022-09-23T09:51:50.396Z,15.78
2022-09-23T09:52:50.359Z,15.68
2022-09-23T09:53:50.320Z,15.68
2022-09-23T09:54:50.348Z,15.58
2022-09-23T09:55:50.374Z,15.63
2022-09-23T09:56:50.294Z,15.66
2022-09-23T09:57:50.280Z,15.72
2022-09-23T09:58:50.287Z,15.65
2022-09-23T09:59:50.246Z,15.77
2022-09-23T10:00:50.304Z,15.80
2022-09-23T10:01:50.274Z,15.88
2022-09-23T10:02:50.203Z,16.10
2022-09-23T10:03:52.108Z,16.36
2022-09-23T10:04:50.237Z,16.49
2022-09-23T10:05:50.233Z,16.54
2022-09-23T10:06:50.179Z,16.43
2022-09-23T10:07:50.152Z,16.22
2022-09-23T10:08:50.241Z,16.03
2022-09-23T10:09:50.690Z,16.00
2022-09-23T10:10:50.103Z,16.05
2022-09-23T10:11:50.170Z,16.06
2022-09-23T10:12:50.078Z,15.98
2022-09-23T10:13:50.046Z,16.14
2022-09-23T10:14:50.062Z,16.39
2022-09-23T10:15:50.033Z,16.43
2022-09-23T10:16:50.099Z,16.39
2022-09-23T10:17:49.994Z,16.29
2022-09-23T10:18:50.015Z,16.03
2022-09-23T10:19:50.010Z,16.16
2022-09-23T10:20:50.055Z,16.33
2022-09-23T10:21:49.975Z,16.49
2022-09-23T10:22:50.006Z,16.58
2022-09-23T10:23:49.909Z,16.65
2022-09-23T10:24:49.916Z,16.74
2022-09-23T10:25:49.934Z,16.76
2022-09-23T10:26:49.886Z,16.54
2022-09-23T10:27:49.891Z,16.36
2022-09-23T10:28:49.869Z,16.34
2022-09-23T10:29:49.826Z,16.43
2022-09-23T10:30:49.931Z,16.64
2022-09-23T10:31:49.815Z,16.74
2022-09-23T10:32:49.835Z,16.80
2022-09-23T10:33:49.794Z,16.84
2022-09-23T10:34:49.800Z,16.74
2022-09-23T10:35:49.794Z,16.72
2022-09-23T10:36:49.754Z,16.83
2022-09-23T10:37:49.771Z,17.01
2022-09-23T10:38:49.792Z,17.14
2022-09-23T10:39:49.700Z,17.32
2022-09-23T10:40:49.894Z,17.32
2022-09-23T10:41:49.677Z,17.02
2022-09-23T10:42:49.681Z,16.94
2022-09-23T10:43:49.666Z,16.97
2022-09-23T10:44:49.687Z,17.13
2022-09-23T10:45:49.707Z,17.14
2022-09-23T10:46:49.640Z,17.28
2022-09-23T10:47:49.633Z,17.25
2022-09-23T10:48:49.587Z,17.34
2022-09-23T10:49:49.657Z,17.45
2022-09-23T10:50:49.562Z,17.57
2022-09-23T10:51:49.555Z,17.59
2022-09-23T10:52:49.572Z,17.56
2022-09-23T10:53:49.541Z,17.49
2022-09-23T10:54:49.506Z,17.56
2022-09-23T10:55:49.564Z,17.34
2022-09-23T10:56:49.508Z,17.17
2022-09-23T10:57:49.487Z,17.06
2022-09-23T10:58:49.469Z,16.94
2022-09-23T10:59:49.475Z,16.97
2022-09-23T11:00:49.500Z,17.02
2022-09-23T11:01:49.478Z,16.99
2022-09-23T11:02:49.416Z,17.16
2022-09-23T11:03:49.433Z,17.13
2022-09-23T11:04:49.477Z,17.09
2022-09-23T11:05:49.379Z,17.27
2022-09-23T11:06:49.384Z,17.49
2022-09-23T11:07:49.361Z,17.54
2022-09-23T11:08:49.342Z,17.24
2022-09-23T11:09:49.336Z,17.14
2022-09-23T11:10:49.315Z,17.17
2022-09-23T11:11:49.338Z,17.12
2022-09-23T11:12:49.311Z,16.90
2022-09-23T11:13:54.077Z,16.84
2022-09-23T11:14:49.261Z,16.91
2022-09-23T11:15:49.422Z,16.87
2022-09-23T11:16:49.271Z,16.87
2022-09-23T11:17:49.257Z,16.88
2022-09-23T11:18:49.204Z,16.88
2022-09-23T11:19:49.217Z,17.01
2022-09-23T11:20:49.190Z,16.92
2022-09-23T11:21:49.177Z,16.77
2022-09-23T11:22:49.214Z,16.84
2022-09-23T11:23:49.168Z,16.97
2022-09-23T11:24:49.156Z,16.90
2022-09-23T11:25:49.186Z,16.91
2022-09-23T11:26:49.101Z,16.94
2022-09-23T11:27:49.099Z,16.98
2022-09-23T11:28:49.094Z,17.02
2022-09-23T11:29:49.074Z,16.97
2022-09-23T11:30:49.096Z,16.88
2022-09-23T11:31:49.051Z,16.73
2022-09-23T11:32:49.140Z,16.62
2022-09-23T11:33:49.056Z,16.61
2022-09-23T11:34:52.597Z,16.65
2022-09-23T11:35:49.009Z,16.74
2022-09-23T11:36:48.979Z,16.83
2022-09-23T11:37:49.023Z,16.87
2022-09-23T11:38:48.995Z,16.92
2022-09-23T11:39:48.952Z,16.97
2022-09-23T11:40:49.003Z,16.95
2022-09-23T11:41:48.925Z,17.06
2022-09-23T11:42:48.896Z,17.06
2022-09-23T11:43:48.913Z,16.95
2022-09-23T11:44:48.889Z,16.82
2022-09-23T11:45:48.910Z,16.77
2022-09-23T11:46:48.860Z,16.82
2022-09-23T11:47:48.845Z,16.70
2022-09-23T11:48:48.841Z,16.76
2022-09-23T11:49:48.893Z,16.83
2022-09-23T11:50:48.781Z,16.76
2022-09-23T11:51:48.787Z,16.82
2022-09-23T11:52:48.793Z,16.98
2022-09-23T11:53:48.758Z,17.14
2022-09-23T11:54:48.732Z,17.01
2022-09-23T11:55:57.094Z,16.95
2022-09-23T11:56:49.289Z,16.84
2022-09-23T11:57:49.590Z,16.88
2022-09-23T11:58:52.871Z,16.92
2022-09-23T12:00:52.355Z,17.12
2022-09-23T12:01:48.724Z,17.22
2022-09-23T12:03:00.770Z,17.38
2022-09-23T12:03:48.720Z,17.52
2022-09-23T12:04:56.767Z,17.66
2022-09-23T12:05:48.768Z,17.65
2022-09-23T12:06:48.608Z,17.57
2022-09-23T12:07:48.623Z,17.66
2022-09-23T12:08:48.589Z,17.94
2022-09-23T12:09:58.135Z,17.72
2022-09-23T12:10:48.541Z,17.83
2022-09-23T12:11:48.532Z,17.94
2022-09-23T12:12:48.511Z,18.01
2022-09-23T12:13:48.558Z,18.17
2022-09-23T12:14:48.475Z,18.42
2022-09-23T12:15:48.473Z,18.54
2022-09-23T12:16:48.560Z,18.23
2022-09-23T12:17:48.459Z,18.08
2022-09-23T12:18:48.422Z,17.91
2022-09-23T12:19:48.478Z,17.88
2022-09-23T12:20:48.403Z,18.06
2022-09-23T12:21:50.961Z,18.20
2022-09-23T12:22:48.388Z,18.15
2022-09-23T12:23:48.370Z,18.03
2022-09-23T12:24:48.340Z,17.97
2022-09-23T12:25:48.405Z,17.75
2022-09-23T12:26:48.313Z,17.69
2022-09-23T12:27:48.310Z,17.53
2022-09-23T12:28:48.315Z,17.50
2022-09-23T12:29:48.285Z,17.28
2022-09-23T12:30:48.392Z,17.24
2022-09-23T12:31:48.324Z,17.13
2022-09-23T12:32:48.257Z,17.25
2022-09-23T12:33:48.235Z,17.41
2022-09-23T12:34:48.253Z,17.50
2022-09-23T12:35:48.208Z,17.59
2022-09-23T12:36:48.216Z,17.59
2022-09-23T12:37:48.249Z,17.72
2022-09-23T12:38:48.172Z,18.02
2022-09-23T12:39:48.165Z,18.11
2022-09-23T12:40:48.238Z,18.23
2022-09-23T12:41:48.136Z,18.15
2022-09-23T12:42:48.147Z,18.23
2022-09-23T12:43:48.167Z,18.21
2022-09-23T12:44:48.080Z,18.30
2022-09-23T12:45:48.181Z,18.48
2022-09-23T12:46:48.068Z,18.58
2022-09-23T12:47:48.053Z,18.52
2022-09-23T12:48:48.023Z,18.38
2022-09-23T12:49:48.060Z,18.30
2022-09-23T12:50:48.006Z,18.24
2022-09-23T12:51:48.069Z,18.12
2022-09-23T12:52:47.979Z,18.24
2022-09-23T12:53:47.996Z,18.42
2022-09-23T12:54:47.944Z,18.42
2022-09-23T12:55:47.976Z,18.31
2022-09-23T12:56:47.936Z,18.24
2022-09-23T12:57:47.919Z,18.21
2022-09-23T12:58:47.897Z,17.96
2022-09-23T12:59:47.900Z,17.96
2022-09-23T13:00:47.925Z,17.99
2022-09-23T13:01:48.045Z,17.78
2022-09-23T13:02:47.843Z,17.52
2022-09-23T13:03:47.880Z,17.38
2022-09-23T13:04:47.822Z,17.46
2022-09-23T13:05:47.877Z,17.47
2022-09-23T13:06:47.813Z,17.54
2022-09-23T13:07:47.826Z,17.46
2022-09-23T13:08:47.761Z,17.45